sensor_id;sensor_type;location;lat;lon;timestamp;P1;durP1;ratioP1;P2;durP2;ratioP2
64643;SDS011;51056;50.330;7.914;2022-11-27T00:02:56;10.27;;;4.67;;
64643;SDS011;51056;50.330;7.914;2022-11-27T00:05:59;9.05;;;5.57;;
64643;SDS011;51056;50.330;7.914;2022-11-27T00:09:04;11.82;;;6.07;;
64643;SDS011;51056;50.330;7.914;2022-11-27T00:12:10;15.90;;;9.70;;
64643;SDS011;51056;50.330;7.914;2022-11-27T00:15:13;18.30;;;7.30;;
64643;SDS011;51056;50.330;7.914;2022-11-27T00:18:17;15.48;;;6.53;;
64643;SDS011;51056;50.330;7.914;2022-11-27T00:21:23;8.18;;;5.13;;
64643;SDS011;51056;50.330;7.914;2022-11-27T00:24:28;9.32;;;6.03;;
64643;SDS011;51056;50.330;7.914;2022-11-27T00:27:32;17.33;;;6.85;;
64643;SDS011;51056;50.330;7.914;2022-11-27T00:30:35;14.30;;;6.72;;
64643;SDS011;51056;50.330;7.914;2022-11-27T00:36:42;10.13;;;6.13;;
64643;SDS011;51056;50.330;7.914;2022-11-27T00:42:49;12.00;;;6.82;;
64643;SDS011;51056;50.330;7.914;2022-11-27T00:48:57;11.20;;;6.88;;
64643;SDS011;51056;50.330;7.914;2022-11-27T00:52:02;11.60;;;7.72;;
64643;SDS011;51056;50.330;7.914;2022-11-27T00:58:09;13.93;;;6.53;;
64643;SDS011;51056;50.330;7.914;2022-11-27T01:01:21;12.90;;;6.85;;
64643;SDS011;51056;50.330;7.914;2022-11-27T01:04:26;14.40;;;8.75;;
64643;SDS011;51056;50.330;7.914;2022-11-27T01:10:33;16.17;;;8.27;;
64643;SDS011;51056;50.330;7.914;2022-11-27T01:13:36;11.93;;;7.20;;
64643;SDS011;51056;50.330;7.914;2022-11-27T01:16:40;13.13;;;7.35;;
64643;SDS011;51056;50.330;7.914;2022-11-27T01:22:46;16.38;;;8.48;;
64643;SDS011;51056;50.330;7.914;2022-11-27T01:25:50;14.30;;;7.55;;
64643;SDS011;51056;50.330;7.914;2022-11-27T01:28:57;12.38;;;7.22;;
64643;SDS011;51056;50.330;7.914;2022-11-27T01:32:01;15.07;;;7.35;;
64643;SDS011;51056;50.330;7.914;2022-11-27T01:35:04;12.68;;;7.82;;
64643;SDS011;51056;50.330;7.914;2022-11-27T01:38:08;17.92;;;7.68;;
64643;SDS011;51056;50.330;7.914;2022-11-27T01:47:37;12.18;;;7.82;;
64643;SDS011;51056;50.330;7.914;2022-11-27T01:50:45;13.90;;;7.78;;
64643;SDS011;51056;50.330;7.914;2022-11-27T01:53:50;12.38;;;8.13;;
64643;SDS011;51056;50.330;7.914;2022-11-27T01:56:57;18.98;;;8.60;;
64643;SDS011;51056;50.330;7.914;2022-11-27T02:00:05;14.38;;;7.88;;
64643;SDS011;51056;50.330;7.914;2022-11-27T02:03:16;11.93;;;6.97;;
64643;SDS011;51056;50.330;7.914;2022-11-27T02:09:22;13.93;;;7.50;;
64643;SDS011;51056;50.330;7.914;2022-11-27T02:19:13;15.55;;;8.07;;
64643;SDS011;51056;50.330;7.914;2022-11-27T02:29:05;11.75;;;7.07;;
64643;SDS011;51056;50.330;7.914;2022-11-27T02:32:18;14.20;;;7.18;;
64643;SDS011;51056;50.330;7.914;2022-11-27T02:35:32;11.68;;;7.68;;
64643;SDS011;51056;50.330;7.914;2022-11-27T02:38:43;10.38;;;6.85;;
64643;SDS011;51056;50.330;7.914;2022-11-27T02:41:53;12.80;;;7.60;;
64643;SDS011;51056;50.330;7.914;2022-11-27T02:45:10;11.57;;;6.50;;
64643;SDS011;51056;50.330;7.914;2022-11-27T02:48:17;10.07;;;6.60;;
64643;SDS011;51056;50.330;7.914;2022-11-27T02:51:27;9.80;;;6.65;;
64643;SDS011;51056;50.330;7.914;2022-11-27T02:54:37;11.35;;;6.28;;
64643;SDS011;51056;50.330;7.914;2022-11-27T02:57:43;13.80;;;6.93;;
64643;SDS011;51056;50.330;7.914;2022-11-27T03:00:50;11.75;;;6.47;;
64643;SDS011;51056;50.330;7.914;2022-11-27T03:07:01;9.60;;;7.07;;
64643;SDS011;51056;50.330;7.914;2022-11-27T03:10:15;12.90;;;7.50;;
64643;SDS011;51056;50.330;7.914;2022-11-27T03:13:23;12.23;;;6.82;;
64643;SDS011;51056;50.330;7.914;2022-11-27T03:19:59;13.88;;;7.40;;
64643;SDS011;51056;50.330;7.914;2022-11-27T03:23:17;11.25;;;6.55;;
64643;SDS011;51056;50.330;7.914;2022-11-27T03:29:33;11.90;;;7.53;;
64643;SDS011;51056;50.330;7.914;2022-11-27T03:32:41;14.32;;;7.30;;
64643;SDS011;51056;50.330;7.914;2022-11-27T03:35:45;12.90;;;7.28;;
64643;SDS011;51056;50.330;7.914;2022-11-27T03:41:56;11.18;;;6.40;;
64643;SDS011;51056;50.330;7.914;2022-11-27T03:51:46;9.30;;;6.15;;
64643;SDS011;51056;50.330;7.914;2022-11-27T03:55:00;13.02;;;8.05;;
64643;SDS011;51056;50.330;7.914;2022-11-27T03:58:07;13.30;;;6.95;;
64643;SDS011;51056;50.330;7.914;2022-11-27T04:01:18;7.82;;;6.03;;
64643;SDS011;51056;50.330;7.914;2022-11-27T04:04:25;12.57;;;7.18;;
64643;SDS011;51056;50.330;7.914;2022-11-27T04:10:32;11.60;;;7.88;;
64643;SDS011;51056;50.330;7.914;2022-11-27T04:13:35;12.18;;;6.68;;
64643;SDS011;51056;50.330;7.914;2022-11-27T04:16:38;9.88;;;6.00;;
64643;SDS011;51056;50.330;7.914;2022-11-27T04:19:42;12.43;;;6.90;;
64643;SDS011;51056;50.330;7.914;2022-11-27T04:22:45;13.98;;;6.55;;
64643;SDS011;51056;50.330;7.914;2022-11-27T04:25:49;12.45;;;7.15;;
64643;SDS011;51056;50.330;7.914;2022-11-27T04:28:52;11.45;;;7.03;;
64643;SDS011;51056;50.330;7.914;2022-11-27T04:31:56;14.20;;;6.22;;
64643;SDS011;51056;50.330;7.914;2022-11-27T04:38:03;14.32;;;7.53;;
64643;SDS011;51056;50.330;7.914;2022-11-27T04:44:10;16.33;;;8.80;;
64643;SDS011;51056;50.330;7.914;2022-11-27T04:47:13;10.88;;;7.40;;
64643;SDS011;51056;50.330;7.914;2022-11-27T04:50:17;13.38;;;6.47;;
64643;SDS011;51056;50.330;7.914;2022-11-27T04:53:20;12.45;;;8.18;;
64643;SDS011;51056;50.330;7.914;2022-11-27T04:59:27;11.07;;;7.10;;
64643;SDS011;51056;50.330;7.914;2022-11-27T05:02:30;10.25;;;6.53;;
64643;SDS011;51056;50.330;7.914;2022-11-27T05:08:37;10.27;;;7.00;;
64643;SDS011;51056;50.330;7.914;2022-11-27T05:11:40;14.00;;;6.85;;
64643;SDS011;51056;50.330;7.914;2022-11-27T05:14:45;13.13;;;6.82;;
64643;SDS011;51056;50.330;7.914;2022-11-27T05:17:49;12.73;;;6.45;;
64643;SDS011;51056;50.330;7.914;2022-11-27T05:21:03;14.30;;;7.00;;
64643;SDS011;51056;50.330;7.914;2022-11-27T05:24:08;17.90;;;7.82;;
64643;SDS011;51056;50.330;7.914;2022-11-27T05:30:15;13.13;;;6.78;;
64643;SDS011;51056;50.330;7.914;2022-11-27T05:36:22;12.65;;;6.63;;
64643;SDS011;51056;50.330;7.914;2022-11-27T05:39:26;10.63;;;5.68;;
64643;SDS011;51056;50.330;7.914;2022-11-27T05:42:30;13.75;;;6.35;;
64643;SDS011;51056;50.330;7.914;2022-11-27T05:45:35;10.88;;;5.80;;
64643;SDS011;51056;50.330;7.914;2022-11-27T05:48:39;10.25;;;5.95;;
64643;SDS011;51056;50.330;7.914;2022-11-27T05:51:42;10.68;;;7.20;;
64643;SDS011;51056;50.330;7.914;2022-11-27T05:57:49;9.40;;;5.30;;
64643;SDS011;51056;50.330;7.914;2022-11-27T06:00:52;10.45;;;5.05;;
64643;SDS011;51056;50.330;7.914;2022-11-27T06:03:55;9.07;;;5.78;;
64643;SDS011;51056;50.330;7.914;2022-11-27T06:10:02;10.43;;;6.35;;
64643;SDS011;51056;50.330;7.914;2022-11-27T06:13:06;12.93;;;6.32;;
64643;SDS011;51056;50.330;7.914;2022-11-27T06:16:10;12.48;;;6.68;;
64643;SDS011;51056;50.330;7.914;2022-11-27T06:19:16;11.00;;;6.32;;
64643;SDS011;51056;50.330;7.914;2022-11-27T06:25:28;14.02;;;7.47;;
64643;SDS011;51056;50.330;7.914;2022-11-27T06:31:35;12.43;;;6.38;;
64643;SDS011;51056;50.330;7.914;2022-11-27T06:34:38;10.02;;;6.47;;
64643;SDS011;51056;50.330;7.914;2022-11-27T06:40:45;8.60;;;5.20;;
64643;SDS011;51056;50.330;7.914;2022-11-27T06:44:07;11.55;;;6.35;;
64643;SDS011;51056;50.330;7.914;2022-11-27T06:47:13;12.88;;;6.25;;
64643;SDS011;51056;50.330;7.914;2022-11-27T06:53:20;11.48;;;6.88;;
64643;SDS011;51056;50.330;7.914;2022-11-27T06:56:28;10.82;;;6.40;;
64643;SDS011;51056;50.330;7.914;2022-11-27T06:59:34;11.15;;;6.30;;
64643;SDS011;51056;50.330;7.914;2022-11-27T07:02:37;10.38;;;6.20;;
64643;SDS011;51056;50.330;7.914;2022-11-27T07:08:43;18.17;;;6.60;;
64643;SDS011;51056;50.330;7.914;2022-11-27T07:14:50;10.90;;;5.55;;
64643;SDS011;51056;50.330;7.914;2022-11-27T07:17:53;12.00;;;6.20;;
64643;SDS011;51056;50.330;7.914;2022-11-27T07:20:59;12.00;;;5.72;;
64643;SDS011;51056;50.330;7.914;2022-11-27T07:24:03;8.70;;;5.45;;
64643;SDS011;51056;50.330;7.914;2022-11-27T07:27:07;9.93;;;5.25;;
64643;SDS011;51056;50.330;7.914;2022-11-27T07:30:11;22.83;;;13.07;;
64643;SDS011;51056;50.330;7.914;2022-11-27T07:33:15;20.73;;;11.30;;
64643;SDS011;51056;50.330;7.914;2022-11-27T07:39:23;14.93;;;9.25;;
64643;SDS011;51056;50.330;7.914;2022-11-27T07:45:30;14.85;;;9.25;;
64643;SDS011;51056;50.330;7.914;2022-11-27T07:51:37;15.93;;;8.57;;
64643;SDS011;51056;50.330;7.914;2022-11-27T07:54:41;16.73;;;8.38;;
64643;SDS011;51056;50.330;7.914;2022-11-27T07:57:46;14.82;;;8.52;;
64643;SDS011;51056;50.330;7.914;2022-11-27T08:07:28;14.13;;;8.60;;
64643;SDS011;51056;50.330;7.914;2022-11-27T08:10:34;15.43;;;10.32;;
64643;SDS011;51056;50.330;7.914;2022-11-27T08:13:41;15.88;;;8.35;;
64643;SDS011;51056;50.330;7.914;2022-11-27T08:19:47;16.40;;;9.30;;
64643;SDS011;51056;50.330;7.914;2022-11-27T08:22:51;16.52;;;10.68;;
64643;SDS011;51056;50.330;7.914;2022-11-27T08:25:54;26.73;;;17.50;;
64643;SDS011;51056;50.330;7.914;2022-11-27T08:32:03;20.98;;;12.95;;
64643;SDS011;51056;50.330;7.914;2022-11-27T08:35:08;16.00;;;10.70;;
64643;SDS011;51056;50.330;7.914;2022-11-27T08:38:13;18.42;;;10.48;;
64643;SDS011;51056;50.330;7.914;2022-11-27T08:41:17;17.45;;;9.88;;
64643;SDS011;51056;50.330;7.914;2022-11-27T08:44:22;11.35;;;8.07;;
64643;SDS011;51056;50.330;7.914;2022-11-27T08:47:28;14.30;;;9.98;;
64643;SDS011;51056;50.330;7.914;2022-11-27T08:50:32;16.00;;;10.18;;
64643;SDS011;51056;50.330;7.914;2022-11-27T08:56:39;24.00;;;9.48;;
64643;SDS011;51056;50.330;7.914;2022-11-27T08:59:44;12.75;;;7.72;;
64643;SDS011;51056;50.330;7.914;2022-11-27T09:05:51;12.93;;;7.47;;
64643;SDS011;51056;50.330;7.914;2022-11-27T09:08:55;13.15;;;7.18;;
64643;SDS011;51056;50.330;7.914;2022-11-27T09:12:00;14.48;;;6.63;;
64643;SDS011;51056;50.330;7.914;2022-11-27T09:15:03;13.88;;;6.78;;
64643;SDS011;51056;50.330;7.914;2022-11-27T09:18:07;13.38;;;7.20;;
64643;SDS011;51056;50.330;7.914;2022-11-27T09:24:14;12.18;;;7.22;;
64643;SDS011;51056;50.330;7.914;2022-11-27T09:30:22;15.93;;;8.10;;
64643;SDS011;51056;50.330;7.914;2022-11-27T09:33:27;21.67;;;13.88;;
64643;SDS011;51056;50.330;7.914;2022-11-27T09:36:32;32.13;;;17.17;;
64643;SDS011;51056;50.330;7.914;2022-11-27T09:39:35;25.67;;;15.43;;
64643;SDS011;51056;50.330;7.914;2022-11-27T09:45:50;20.98;;;13.45;;
64643;SDS011;51056;50.330;7.914;2022-11-27T09:49:02;22.08;;;13.73;;
64643;SDS011;51056;50.330;7.914;2022-11-27T09:55:36;21.23;;;11.40;;
64643;SDS011;51056;50.330;7.914;2022-11-27T10:01:52;18.23;;;10.73;;
64643;SDS011;51056;50.330;7.914;2022-11-27T10:04:56;17.90;;;10.60;;
64643;SDS011;51056;50.330;7.914;2022-11-27T10:11:14;16.20;;;9.07;;
64643;SDS011;51056;50.330;7.914;2022-11-27T10:18:24;16.95;;;9.70;;
64643;SDS011;51056;50.330;7.914;2022-11-27T10:21:35;12.20;;;8.88;;
64643;SDS011;51056;50.330;7.914;2022-11-27T10:25:04;14.68;;;8.07;;
64643;SDS011;51056;50.330;7.914;2022-11-27T10:28:44;10.90;;;6.40;;
64643;SDS011;51056;50.330;7.914;2022-11-27T10:35:21;10.48;;;5.70;;
64643;SDS011;51056;50.330;7.914;2022-11-27T10:38:30;10.35;;;5.28;;
64643;SDS011;51056;50.330;7.914;2022-11-27T10:48:42;8.27;;;5.78;;
64643;SDS011;51056;50.330;7.914;2022-11-27T10:54:55;11.82;;;6.07;;
64643;SDS011;51056;50.330;7.914;2022-11-27T11:01:48;9.10;;;5.57;;
64643;SDS011;51056;50.330;7.914;2022-11-27T11:04:54;8.25;;;5.00;;
64643;SDS011;51056;50.330;7.914;2022-11-27T11:11:08;13.55;;;8.73;;
64643;SDS011;51056;50.330;7.914;2022-11-27T11:14:23;14.48;;;7.70;;
64643;SDS011;51056;50.330;7.914;2022-11-27T11:17:31;7.53;;;5.22;;
64643;SDS011;51056;50.330;7.914;2022-11-27T11:20:42;9.90;;;5.25;;
64643;SDS011;51056;50.330;7.914;2022-11-27T11:23:52;10.13;;;6.13;;
64643;SDS011;51056;50.330;7.914;2022-11-27T11:27:05;7.85;;;5.25;;
64643;SDS011;51056;50.330;7.914;2022-11-27T11:30:20;9.73;;;5.68;;
64643;SDS011;51056;50.330;7.914;2022-11-27T11:33:26;9.00;;;4.85;;
64643;SDS011;51056;50.330;7.914;2022-11-27T11:36:31;9.65;;;4.22;;
64643;SDS011;51056;50.330;7.914;2022-11-27T11:39:41;9.30;;;5.43;;
64643;SDS011;51056;50.330;7.914;2022-11-27T11:46:18;7.20;;;4.65;;
64643;SDS011;51056;50.330;7.914;2022-11-27T11:49:32;15.63;;;7.78;;
64643;SDS011;51056;50.330;7.914;2022-11-27T12:00:03;8.30;;;4.32;;
64643;SDS011;51056;50.330;7.914;2022-11-27T12:03:31;9.60;;;5.50;;
64643;SDS011;51056;50.330;7.914;2022-11-27T12:09:56;8.18;;;4.55;;
64643;SDS011;51056;50.330;7.914;2022-11-27T12:13:23;7.47;;;4.55;;
64643;SDS011;51056;50.330;7.914;2022-11-27T12:40:01;7.97;;;4.03;;
64643;SDS011;51056;50.330;7.914;2022-11-27T12:43:29;16.83;;;10.07;;
64643;SDS011;51056;50.330;7.914;2022-11-27T12:46:49;20.88;;;13.48;;
64643;SDS011;51056;50.330;7.914;2022-11-27T12:49:59;12.10;;;7.55;;
64643;SDS011;51056;50.330;7.914;2022-11-27T12:53:20;10.67;;;4.97;;
64643;SDS011;51056;50.330;7.914;2022-11-27T12:56:49;10.70;;;6.47;;
64643;SDS011;51056;50.330;7.914;2022-11-27T12:59:57;10.02;;;4.18;;
64643;SDS011;51056;50.330;7.914;2022-11-27T13:03:23;7.30;;;4.28;;
64643;SDS011;51056;50.330;7.914;2022-11-27T13:06:33;8.60;;;4.55;;
64643;SDS011;51056;50.330;7.914;2022-11-27T13:10:21;6.85;;;3.88;;
64643;SDS011;51056;50.330;7.914;2022-11-27T13:13:31;8.43;;;5.60;;
64643;SDS011;51056;50.330;7.914;2022-11-27T13:16:43;7.18;;;3.65;;
64643;SDS011;51056;50.330;7.914;2022-11-27T13:19:50;11.48;;;5.75;;
64643;SDS011;51056;50.330;7.914;2022-11-27T13:22:54;7.75;;;4.00;;
64643;SDS011;51056;50.330;7.914;2022-11-27T13:29:02;6.68;;;4.30;;
64643;SDS011;51056;50.330;7.914;2022-11-27T13:32:17;8.25;;;5.38;;
64643;SDS011;51056;50.330;7.914;2022-11-27T13:38:38;8.13;;;4.85;;
64643;SDS011;51056;50.330;7.914;2022-11-27T13:41:46;4.78;;;3.20;;
64643;SDS011;51056;50.330;7.914;2022-11-27T13:44:51;6.65;;;3.70;;
64643;SDS011;51056;50.330;7.914;2022-11-27T13:48:01;6.13;;;3.10;;
64643;SDS011;51056;50.330;7.914;2022-11-27T13:51:28;6.55;;;3.92;;
64643;SDS011;51056;50.330;7.914;2022-11-27T13:54:33;8.25;;;4.88;;
64643;SDS011;51056;50.330;7.914;2022-11-27T13:57:36;10.57;;;5.35;;
64643;SDS011;51056;50.330;7.914;2022-11-27T14:00:41;8.60;;;5.10;;
64643;SDS011;51056;50.330;7.914;2022-11-27T14:03:46;7.95;;;4.13;;
64643;SDS011;51056;50.330;7.914;2022-11-27T14:06:52;8.75;;;3.60;;
64643;SDS011;51056;50.330;7.914;2022-11-27T14:10:05;7.63;;;3.65;;
64643;SDS011;51056;50.330;7.914;2022-11-27T14:13:15;4.82;;;3.20;;
64643;SDS011;51056;50.330;7.914;2022-11-27T14:16:23;6.18;;;3.58;;
64643;SDS011;51056;50.330;7.914;2022-11-27T14:19:38;6.65;;;3.67;;
64643;SDS011;51056;50.330;7.914;2022-11-27T14:22:47;5.60;;;2.80;;
64643;SDS011;51056;50.330;7.914;2022-11-27T14:29:33;6.43;;;3.72;;
64643;SDS011;51056;50.330;7.914;2022-11-27T14:32:39;7.88;;;3.28;;
64643;SDS011;51056;50.330;7.914;2022-11-27T14:35:49;6.97;;;3.25;;
64643;SDS011;51056;50.330;7.914;2022-11-27T14:38:54;12.02;;;4.72;;
64643;SDS011;51056;50.330;7.914;2022-11-27T14:45:18;7.82;;;4.25;;
64643;SDS011;51056;50.330;7.914;2022-11-27T14:48:24;7.15;;;3.33;;
64643;SDS011;51056;50.330;7.914;2022-11-27T14:51:44;5.97;;;3.28;;
64643;SDS011;51056;50.330;7.914;2022-11-27T14:54:48;6.65;;;2.95;;
64643;SDS011;51056;50.330;7.914;2022-11-27T14:57:53;5.72;;;3.67;;
64643;SDS011;51056;50.330;7.914;2022-11-27T15:00:59;8.10;;;3.40;;
64643;SDS011;51056;50.330;7.914;2022-11-27T15:04:24;7.28;;;3.55;;
64643;SDS011;51056;50.330;7.914;2022-11-27T15:07:37;6.43;;;3.22;;
64643;SDS011;51056;50.330;7.914;2022-11-27T15:10:43;5.45;;;2.78;;
64643;SDS011;51056;50.330;7.914;2022-11-27T15:13:54;5.90;;;3.03;;
64643;SDS011;51056;50.330;7.914;2022-11-27T15:17:02;5.93;;;2.40;;
64643;SDS011;51056;50.330;7.914;2022-11-27T15:20:19;6.35;;;2.78;;
64643;SDS011;51056;50.330;7.914;2022-11-27T15:23:29;6.20;;;2.83;;
64643;SDS011;51056;50.330;7.914;2022-11-27T15:26:36;4.57;;;2.72;;
64643;SDS011;51056;50.330;7.914;2022-11-27T15:32:53;6.20;;;3.78;;
64643;SDS011;51056;50.330;7.914;2022-11-27T15:36:13;6.15;;;3.83;;
64643;SDS011;51056;50.330;7.914;2022-11-27T15:39:26;7.03;;;4.00;;
64643;SDS011;51056;50.330;7.914;2022-11-27T15:42:41;7.82;;;4.65;;
64643;SDS011;51056;50.330;7.914;2022-11-27T15:45:50;6.93;;;3.22;;
64643;SDS011;51056;50.330;7.914;2022-11-27T15:48:53;6.80;;;3.30;;
64643;SDS011;51056;50.330;7.914;2022-11-27T15:55:00;6.70;;;2.63;;
64643;SDS011;51056;50.330;7.914;2022-11-27T16:01:07;7.65;;;3.25;;
64643;SDS011;51056;50.330;7.914;2022-11-27T16:04:11;6.63;;;3.72;;
64643;SDS011;51056;50.330;7.914;2022-11-27T16:10:17;6.80;;;3.40;;
64643;SDS011;51056;50.330;7.914;2022-11-27T16:13:21;5.57;;;3.22;;
64643;SDS011;51056;50.330;7.914;2022-11-27T16:16:25;5.03;;;2.70;;
64643;SDS011;51056;50.330;7.914;2022-11-27T16:19:29;11.80;;;7.75;;
64643;SDS011;51056;50.330;7.914;2022-11-27T16:22:32;10.15;;;6.10;;
64643;SDS011;51056;50.330;7.914;2022-11-27T16:28:42;7.03;;;4.18;;
64643;SDS011;51056;50.330;7.914;2022-11-27T16:31:45;7.75;;;3.45;;
64643;SDS011;51056;50.330;7.914;2022-11-27T16:34:50;8.23;;;4.50;;
64643;SDS011;51056;50.330;7.914;2022-11-27T16:40:58;17.27;;;11.05;;
64643;SDS011;51056;50.330;7.914;2022-11-27T16:44:08;15.35;;;10.40;;
64643;SDS011;51056;50.330;7.914;2022-11-27T16:47:14;14.98;;;8.10;;
64643;SDS011;51056;50.330;7.914;2022-11-27T16:50:19;19.67;;;9.43;;
64643;SDS011;51056;50.330;7.914;2022-11-27T16:53:23;16.50;;;8.82;;
64643;SDS011;51056;50.330;7.914;2022-11-27T16:59:30;12.18;;;6.43;;
64643;SDS011;51056;50.330;7.914;2022-11-27T17:02:34;13.77;;;7.65;;
64643;SDS011;51056;50.330;7.914;2022-11-27T17:05:38;13.27;;;7.80;;
64643;SDS011;51056;50.330;7.914;2022-11-27T17:08:44;13.15;;;7.00;;
64643;SDS011;51056;50.330;7.914;2022-11-27T17:11:50;17.73;;;10.50;;
64643;SDS011;51056;50.330;7.914;2022-11-27T17:14:54;15.10;;;9.07;;
64643;SDS011;51056;50.330;7.914;2022-11-27T17:17:59;13.73;;;6.65;;
64643;SDS011;51056;50.330;7.914;2022-11-27T17:21:07;10.57;;;5.45;;
64643;SDS011;51056;50.330;7.914;2022-11-27T17:24:14;10.55;;;5.13;;
64643;SDS011;51056;50.330;7.914;2022-11-27T17:27:20;10.82;;;5.97;;
64643;SDS011;51056;50.330;7.914;2022-11-27T17:30:28;9.63;;;6.07;;
64643;SDS011;51056;50.330;7.914;2022-11-27T17:33:32;11.55;;;6.65;;
64643;SDS011;51056;50.330;7.914;2022-11-27T17:36:36;12.18;;;5.30;;
64643;SDS011;51056;50.330;7.914;2022-11-27T17:39:42;8.68;;;4.20;;
64643;SDS011;51056;50.330;7.914;2022-11-27T17:42:47;9.52;;;3.92;;
64643;SDS011;51056;50.330;7.914;2022-11-27T17:45:52;7.38;;;3.60;;
64643;SDS011;51056;50.330;7.914;2022-11-27T17:48:55;8.20;;;3.28;;
64643;SDS011;51056;50.330;7.914;2022-11-27T17:52:02;7.78;;;3.78;;
64643;SDS011;51056;50.330;7.914;2022-11-27T17:55:06;5.20;;;3.10;;
64643;SDS011;51056;50.330;7.914;2022-11-27T17:58:13;7.10;;;3.20;;
64643;SDS011;51056;50.330;7.914;2022-11-27T18:01:19;5.82;;;3.67;;
64643;SDS011;51056;50.330;7.914;2022-11-27T18:04:28;6.57;;;3.47;;
64643;SDS011;51056;50.330;7.914;2022-11-27T18:07:34;4.65;;;3.17;;
64643;SDS011;51056;50.330;7.914;2022-11-27T18:10:39;5.53;;;3.17;;
64643;SDS011;51056;50.330;7.914;2022-11-27T18:13:54;4.32;;;3.00;;
64643;SDS011;51056;50.330;7.914;2022-11-27T18:17:00;6.18;;;3.08;;
64643;SDS011;51056;50.330;7.914;2022-11-27T18:20:09;5.80;;;3.38;;
64643;SDS011;51056;50.330;7.914;2022-11-27T18:23:13;6.85;;;2.90;;
64643;SDS011;51056;50.330;7.914;2022-11-27T18:26:18;5.65;;;2.90;;
64643;SDS011;51056;50.330;7.914;2022-11-27T18:29:22;5.85;;;3.20;;
64643;SDS011;51056;50.330;7.914;2022-11-27T18:35:29;9.95;;;2.97;;
64643;SDS011;51056;50.330;7.914;2022-11-27T18:41:37;5.97;;;3.58;;
64643;SDS011;51056;50.330;7.914;2022-11-27T18:44:40;33.65;;;24.55;;
64643;SDS011;51056;50.330;7.914;2022-11-27T18:47:45;16.25;;;11.07;;
64643;SDS011;51056;50.330;7.914;2022-11-27T18:50:48;16.80;;;11.32;;
64643;SDS011;51056;50.330;7.914;2022-11-27T18:53:52;19.48;;;12.93;;
64643;SDS011;51056;50.330;7.914;2022-11-27T18:56:56;22.88;;;16.05;;
64643;SDS011;51056;50.330;7.914;2022-11-27T19:00:00;21.40;;;14.90;;
64643;SDS011;51056;50.330;7.914;2022-11-27T19:03:05;16.73;;;11.40;;
64643;SDS011;51056;50.330;7.914;2022-11-27T19:06:09;12.25;;;6.97;;
64643;SDS011;51056;50.330;7.914;2022-11-27T19:09:15;12.93;;;9.60;;
64643;SDS011;51056;50.330;7.914;2022-11-27T19:12:21;16.38;;;10.38;;
64643;SDS011;51056;50.330;7.914;2022-11-27T19:15:25;15.60;;;11.80;;
64643;SDS011;51056;50.330;7.914;2022-11-27T19:18:28;12.43;;;8.65;;
64643;SDS011;51056;50.330;7.914;2022-11-27T19:21:32;12.38;;;7.78;;
64643;SDS011;51056;50.330;7.914;2022-11-27T19:24:41;8.27;;;5.97;;
64643;SDS011;51056;50.330;7.914;2022-11-27T19:27:45;10.70;;;7.65;;
64643;SDS011;51056;50.330;7.914;2022-11-27T19:30:49;11.23;;;8.13;;
64643;SDS011;51056;50.330;7.914;2022-11-27T19:33:54;10.20;;;7.30;;
64643;SDS011;51056;50.330;7.914;2022-11-27T19:37:01;9.50;;;6.47;;
64643;SDS011;51056;50.330;7.914;2022-11-27T19:40:05;10.75;;;6.97;;
64643;SDS011;51056;50.330;7.914;2022-11-27T19:43:09;16.75;;;12.38;;
64643;SDS011;51056;50.330;7.914;2022-11-27T19:49:17;10.38;;;6.45;;
64643;SDS011;51056;50.330;7.914;2022-11-27T19:52:22;14.75;;;12.18;;
64643;SDS011;51056;50.330;7.914;2022-11-27T19:55:25;20.65;;;15.73;;
64643;SDS011;51056;50.330;7.914;2022-11-27T20:01:32;23.02;;;15.75;;
64643;SDS011;51056;50.330;7.914;2022-11-27T20:04:35;18.73;;;12.13;;
64643;SDS011;51056;50.330;7.914;2022-11-27T20:07:38;15.77;;;9.57;;
64643;SDS011;51056;50.330;7.914;2022-11-27T20:13:50;13.50;;;7.05;;
64643;SDS011;51056;50.330;7.914;2022-11-27T20:16:54;9.35;;;6.13;;
64643;SDS011;51056;50.330;7.914;2022-11-27T20:23:02;17.13;;;9.02;;
64643;SDS011;51056;50.330;7.914;2022-11-27T20:29:11;30.40;;;15.68;;
64643;SDS011;51056;50.330;7.914;2022-11-27T20:32:15;21.35;;;10.57;;
64643;SDS011;51056;50.330;7.914;2022-11-27T20:35:19;11.82;;;7.10;;
64643;SDS011;51056;50.330;7.914;2022-11-27T20:41:28;10.20;;;5.72;;
64643;SDS011;51056;50.330;7.914;2022-11-27T20:44:32;9.88;;;6.07;;
64643;SDS011;51056;50.330;7.914;2022-11-27T20:47:36;15.45;;;7.80;;
64643;SDS011;51056;50.330;7.914;2022-11-27T20:50:40;11.57;;;7.05;;
64643;SDS011;51056;50.330;7.914;2022-11-27T20:53:47;21.58;;;11.85;;
64643;SDS011;51056;50.330;7.914;2022-11-27T20:56:51;29.30;;;15.70;;
64643;SDS011;51056;50.330;7.914;2022-11-27T20:59:54;19.92;;;13.07;;
64643;SDS011;51056;50.330;7.914;2022-11-27T21:02:58;27.05;;;16.23;;
64643;SDS011;51056;50.330;7.914;2022-11-27T21:06:01;25.27;;;15.70;;
64643;SDS011;51056;50.330;7.914;2022-11-27T21:09:04;22.10;;;12.80;;
64643;SDS011;51056;50.330;7.914;2022-11-27T21:12:10;20.92;;;12.30;;
64643;SDS011;51056;50.330;7.914;2022-11-27T21:15:15;19.45;;;9.52;;
64643;SDS011;51056;50.330;7.914;2022-11-27T21:21:22;16.95;;;10.00;;
64643;SDS011;51056;50.330;7.914;2022-11-27T21:27:31;15.43;;;7.97;;
64643;SDS011;51056;50.330;7.914;2022-11-27T21:30:35;14.82;;;6.72;;
64643;SDS011;51056;50.330;7.914;2022-11-27T21:33:39;16.02;;;8.13;;
64643;SDS011;51056;50.330;7.914;2022-11-27T21:42:51;12.10;;;6.60;;
64643;SDS011;51056;50.330;7.914;2022-11-27T21:45:55;11.55;;;5.85;;
64643;SDS011;51056;50.330;7.914;2022-11-27T21:48:59;17.13;;;7.75;;
64643;SDS011;51056;50.330;7.914;2022-11-27T21:52:04;15.30;;;7.07;;
64643;SDS011;51056;50.330;7.914;2022-11-27T21:55:08;14.57;;;6.85;;
64643;SDS011;51056;50.330;7.914;2022-11-27T22:01:16;10.93;;;7.07;;
64643;SDS011;51056;50.330;7.914;2022-11-27T22:04:21;16.20;;;7.03;;
64643;SDS011;51056;50.330;7.914;2022-11-27T22:07:26;17.80;;;9.55;;
64643;SDS011;51056;50.330;7.914;2022-11-27T22:13:33;15.05;;;9.23;;
64643;SDS011;51056;50.330;7.914;2022-11-27T22:16:36;19.75;;;10.25;;
64643;SDS011;51056;50.330;7.914;2022-11-27T22:19:40;14.55;;;9.25;;
64643;SDS011;51056;50.330;7.914;2022-11-27T22:22:44;18.10;;;8.52;;
64643;SDS011;51056;50.330;7.914;2022-11-27T22:25:48;14.23;;;9.30;;
64643;SDS011;51056;50.330;7.914;2022-11-27T22:28:51;15.68;;;8.25;;
64643;SDS011;51056;50.330;7.914;2022-11-27T22:31:56;16.35;;;7.15;;
64643;SDS011;51056;50.330;7.914;2022-11-27T22:35:00;13.60;;;7.82;;
64643;SDS011;51056;50.330;7.914;2022-11-27T22:38:03;18.20;;;9.55;;
64643;SDS011;51056;50.330;7.914;2022-11-27T22:41:07;13.82;;;7.53;;
64643;SDS011;51056;50.330;7.914;2022-11-27T22:44:18;16.08;;;7.53;;
64643;SDS011;51056;50.330;7.914;2022-11-27T22:47:27;14.23;;;8.32;;
64643;SDS011;51056;50.330;7.914;2022-11-27T22:50:30;12.63;;;7.50;;
64643;SDS011;51056;50.330;7.914;2022-11-27T22:56:37;12.23;;;8.70;;
64643;SDS011;51056;50.330;7.914;2022-11-27T22:59:40;12.15;;;7.38;;
64643;SDS011;51056;50.330;7.914;2022-11-27T23:05:47;14.98;;;9.27;;
64643;SDS011;51056;50.330;7.914;2022-11-27T23:08:51;10.60;;;6.70;;
64643;SDS011;51056;50.330;7.914;2022-11-27T23:11:55;11.90;;;5.70;;
64643;SDS011;51056;50.330;7.914;2022-11-27T23:14:59;8.80;;;4.95;;
64643;SDS011;51056;50.330;7.914;2022-11-27T23:18:02;17.63;;;8.73;;
64643;SDS011;51056;50.330;7.914;2022-11-27T23:21:06;6.50;;;5.10;;
64643;SDS011;51056;50.330;7.914;2022-11-27T23:24:12;6.68;;;4.65;;
64643;SDS011;51056;50.330;7.914;2022-11-27T23:27:17;9.95;;;5.50;;
64643;SDS011;51056;50.330;7.914;2022-11-27T23:30:20;10.48;;;5.70;;